aviador You're here:

RJOO Decoded Metar

OSAKA in JAPAN
Report Time2017-12-15 06:00:00
UTC Time2017-12-15 06:24:52
Flight Rules vfr VFR
WindVRB at 02 kt
Visibility9999 m
Phenomena:N/A
Clouds:Few 030 Hf
Expected CloudBase > 5,600 ft AGL from Temp-Dew spread
CeilingNone
Temp10°C (ISA -5)
Dew Point-4°C (37% RH)
AAT6.8°C
QNH1021 hPa
Density Alt-741 ft
Elevation49 ft
Report Wrong Elevation
Raw Report
RJOO 150600Z VRB02KT 9999 FEW030 10/M04 Q1021 RMK 2CU030 A3016
P/FR=

Extra information for RJOO:More info

Metar Taf Metar & Taf Last 4 Metars F.Rules Stats Wind Profile Meteogram Temp Stats Airport Information Weather charts Add Link Nearby VenuesMetar ALERT Operation Metar Decoded Social comments